Time;durP1;ratioP1;P1;durP2;ratioP2;P2;SDS_P1;SDS_P2;PMS_P1;PMS_P2;Temp;Humidity;BMP_temperature;BMP_pressure;BME280_temperature;BME280_humidity;BME280_pressure;Samples;Min_cycle;Max_cycle;Signal;HPM_P1;HPM_P2
2021/08/20 00:00:29;;;;;;;;;;;;;;;21.87;69.59;101220.53;1586726;30;152560;-58
2021/08/20 00:02:01;;;;;;;;;;;;;;;21.86;70.33;101216.88;1588754;38;151962;-58
2021/08/20 00:03:33;;;;;;;;;;;;;;;21.87;70.06;101217.72;1585751;38;151954;-58
2021/08/20 00:05:06;;;;;;;;;;;;;;;21.85;69.99;101212.38;1588499;38;151898;-58
2021/08/20 00:06:38;;;;;;;;;;;;;;;21.85;69.90;101220.81;1585711;31;152427;-58
2021/08/20 00:08:10;;;;;;;;;;;;;;;21.85;69.82;101212.38;1587305;38;152198;-58
2021/08/20 00:09:42;;;;;;;;;;;;;;;21.84;70.17;101219.19;1591361;38;152457;-58
2021/08/20 00:11:13;;;;;;;;;;;;;;;21.84;70.00;101213.56;1589737;38;153859;-58
2021/08/20 00:12:45;;;;;;;;;;;;;;;21.85;69.89;101215.19;1588652;38;152686;-57
2021/08/20 00:14:17;;;;;;;;;;;;;;;21.86;70.07;101210.41;1588424;38;153570;-58
2021/08/20 00:15:49;;;;;;;;;;;;;;;21.83;69.99;101219.47;1587423;38;153919;-57
2021/08/20 00:17:22;;;;;;;;;;;;;;;21.82;70.21;101215.84;1589020;30;152839;-57
2021/08/20 00:18:54;;;;;;;;;;;;;;;21.83;70.41;101216.66;1590377;30;153623;-58
2021/08/20 00:20:26;;;;;;;;;;;;;;;21.81;70.70;101210.50;1589770;30;153536;-57
2021/08/20 00:21:57;;;;;;;;;;;;;;;21.80;70.43;101214.50;1590117;38;152949;-58
2021/08/20 00:23:30;;;;;;;;;;;;;;;21.82;70.13;101215.00;1587473;38;156096;-58
2021/08/20 00:25:02;;;;;;;;;;;;;;;21.80;70.42;101217.31;1587812;38;155024;-58
2021/08/20 00:26:34;;;;;;;;;;;;;;;21.80;70.51;101218.13;1589212;38;154407;-58
2021/08/20 00:28:05;;;;;;;;;;;;;;;21.79;70.87;101224.06;1586445;38;153689;-58
2021/08/20 00:29:37;;;;;;;;;;;;;;;21.78;70.99;101220.41;1588810;38;152792;-58
2021/08/20 00:31:09;;;;;;;;;;;;;;;21.77;70.68;101226.34;1591286;38;153595;-58
2021/08/20 00:32:41;;;;;;;;;;;;;;;21.77;70.39;101215.09;1589657;38;154552;-58
2021/08/20 00:34:13;;;;;;;;;;;;;;;21.76;70.47;101225.50;1589396;38;153832;-58
2021/08/20 00:35:45;;;;;;;;;;;;;;;21.76;70.37;101216.25;1588633;38;154104;-58
2021/08/20 00:37:17;;;;;;;;;;;;;;;21.76;70.28;101225.50;1589146;38;154298;-58
2021/08/20 00:38:49;;;;;;;;;;;;;;;21.78;70.60;101228.00;1588163;38;153623;-58
2021/08/20 00:40:21;;;;;;;;;;;;;;;21.77;70.49;101217.91;1589008;38;154063;-57
2021/08/20 00:41:53;;;;;;;;;;;;;;;21.77;70.24;101223.53;1587990;38;154615;-58
2021/08/20 00:43:25;;;;;;;;;;;;;;;21.76;70.77;101227.50;1589372;38;153111;-57
2021/08/20 00:44:57;;;;;;;;;;;;;;;21.76;70.76;101225.50;1586351;38;153851;-58
2021/08/20 00:46:29;;;;;;;;;;;;;;;21.75;70.34;101215.41;1589325;38;154521;-58
2021/08/20 00:48:02;;;;;;;;;;;;;;;21.74;70.47;101214.59;1589169;38;153473;-58
2021/08/20 00:49:34;;;;;;;;;;;;;;;21.73;70.61;101224.16;1587973;38;153780;-58
2021/08/20 00:51:09;;;;;;;;;;;;;;;21.75;70.26;101221.03;1589306;30;153404;-57
2021/08/20 00:52:41;;;;;;;;;;;;;;;21.75;70.14;101209.78;1591113;38;153598;-57
2021/08/20 00:54:14;;;;;;;;;;;;;;;21.74;70.35;101208.13;1587324;38;153008;-58
2021/08/20 00:55:46;;;;;;;;;;;;;;;21.72;70.19;101211.22;1586825;38;152562;-58
2021/08/20 00:57:18;;;;;;;;;;;;;;;21.73;70.19;101207.28;1588414;38;151832;-58
2021/08/20 00:58:50;;;;;;;;;;;;;;;21.73;70.49;101212.91;1588275;38;152170;-58
2021/08/20 01:00:22;;;;;;;;;;;;;;;21.72;70.28;101219.66;1587836;38;153926;-58
2021/08/20 01:01:55;;;;;;;;;;;;;;;21.68;70.30;101218.63;1586110;38;153838;-58
2021/08/20 01:03:28;;;;;;;;;;;;;;;21.68;70.32;101200.91;1588801;38;152349;-57
2021/08/20 01:05:00;;;;;;;;;;;;;;;21.70;69.92;101207.06;1588998;30;152241;-57
2021/08/20 01:06:33;;;;;;;;;;;;;;;21.66;70.16;101206.88;1589838;38;151975;-58
2021/08/20 01:08:06;;;;;;;;;;;;;;;21.68;70.07;101209.34;1586561;38;152132;-58
2021/08/20 01:09:38;;;;;;;;;;;;;;;21.69;69.94;101213.84;1589729;30;153768;-58
2021/08/20 01:11:10;;;;;;;;;;;;;;;21.68;70.19;101210.19;1587107;38;152949;-58
2021/08/20 01:12:42;;;;;;;;;;;;;;;21.70;69.69;101207.06;1587860;38;152407;-58
2021/08/20 01:14:25;;;;;;;;;;;;;;;21.69;69.80;101197.81;1591284;38;151960;-57
2021/08/20 01:15:57;;;;;;;;;;;;;;;21.72;69.70;101201.97;1588287;38;152781;-57
2021/08/20 01:17:29;;;;;;;;;;;;;;;21.75;69.12;101204.16;1587787;38;153439;-58
2021/08/20 01:19:01;;;;;;;;;;;;;;;21.74;69.50;101197.72;1589102;38;153347;-58
2021/08/20 01:20:33;;;;;;;;;;;;;;;21.75;69.21;101198.53;1589244;38;154002;-58
2021/08/20 01:22:07;;;;;;;;;;;;;;;21.77;69.62;101203.84;1589324;38;152832;-58
2021/08/20 01:23:39;;;;;;;;;;;;;;;21.76;69.57;101203.00;1589467;38;152873;-58
2021/08/20 01:25:11;;;;;;;;;;;;;;;21.76;69.60;101205.81;1588979;30;153829;-57
2021/08/20 01:26:46;;;;;;;;;;;;;;;21.78;69.60;101211.13;1588213;38;153899;-58
2021/08/20 01:28:19;;;;;;;;;;;;;;;21.77;69.59;101212.28;1588522;38;153183;-58
2021/08/20 01:29:51;;;;;;;;;;;;;;;21.78;69.60;101208.31;1585628;38;152796;-58
2021/08/20 01:31:23;;;;;;;;;;;;;;;21.81;69.42;101210.50;1589566;38;152977;-58
2021/08/20 01:32:55;;;;;;;;;;;;;;;21.82;69.41;101210.22;1586132;30;153002;-58
2021/08/20 01:34:27;;;;;;;;;;;;;;;21.86;69.33;101213.22;1587336;38;153446;-58
2021/08/20 01:35:59;;;;;;;;;;;;;;;21.85;69.51;101217.22;1592125;38;153018;-58
2021/08/20 01:37:31;;;;;;;;;;;;;;;21.89;69.24;101212.63;1587966;38;154284;-58
2021/08/20 01:39:03;;;;;;;;;;;;;;;21.87;68.92;101210.13;1588919;30;154037;-58
2021/08/20 01:40:35;;;;;;;;;;;;;;;21.89;69.04;101215.44;1588846;38;154121;-58
2021/08/20 01:42:07;;;;;;;;;;;;;;;21.89;69.20;101216.28;1588418;38;153820;-58
2021/08/20 01:43:39;;;;;;;;;;;;;;;21.93;69.34;101222.13;1588288;38;153360;-58
2021/08/20 01:45:11;;;;;;;;;;;;;;;21.93;69.13;101216.50;1588392;38;153465;-58
2021/08/20 01:46:43;;;;;;;;;;;;;;;21.93;68.87;101216.50;1588296;30;153962;-58
2021/08/20 01:48:15;;;;;;;;;;;;;;;21.93;68.83;101220.16;1587007;30;153661;-58
2021/08/20 01:49:48;;;;;;;;;;;;;;;21.93;69.12;101216.50;1590070;30;154803;-58
2021/08/20 01:51:21;;;;;;;;;;;;;;;21.94;69.22;101216.19;1587603;38;153565;-58
2021/08/20 01:52:53;;;;;;;;;;;;;;;21.95;68.81;101217.00;1588309;30;154134;-63
2021/08/20 01:54:26;;;;;;;;;;;;;;;21.92;68.88;101220.44;1588515;38;154258;-58
2021/08/20 01:55:58;;;;;;;;;;;;;;;21.97;68.71;101224.00;1589668;38;154015;-58
2021/08/20 01:57:30;;;;;;;;;;;;;;;21.94;68.34;101223.81;1586993;38;154259;-58
2021/08/20 01:59:02;;;;;;;;;;;;;;;21.94;69.21;101223.81;1591938;38;153453;-58
2021/08/20 02:00:34;;;;;;;;;;;;;;;21.94;69.16;101218.19;1587479;38;151958;-58
2021/08/20 02:02:06;;;;;;;;;;;;;;;21.92;68.80;101221.28;1587542;38;151922;-58
2021/08/20 02:03:38;;;;;;;;;;;;;;;21.95;68.78;101222.66;1588495;38;152158;-58
2021/08/20 02:05:10;;;;;;;;;;;;;;;21.92;68.67;101212.00;1588659;38;152036;-58
2021/08/20 02:06:42;;;;;;;;;;;;;;;21.95;69.00;101217.00;1587582;38;151962;-58
2021/08/20 02:08:14;;;;;;;;;;;;;;;21.95;68.88;101217.00;1586941;38;152273;-58
2021/08/20 02:09:47;;;;;;;;;;;;;;;21.94;68.71;101219.00;1585190;38;152626;-58
2021/08/20 02:11:19;;;;;;;;;;;;;;;21.94;68.94;101219.00;1588713;38;152347;-58
2021/08/20 02:12:51;;;;;;;;;;;;;;;21.94;68.34;101221.81;1587724;38;152530;-59
2021/08/20 02:14:24;;;;;;;;;;;;;;;21.95;68.85;101225.47;1587413;38;152383;-58
2021/08/20 02:15:57;;;;;;;;;;;;;;;21.96;68.41;101229.94;1586385;38;152219;-58
2021/08/20 02:17:29;;;;;;;;;;;;;;;21.94;68.71;101229.44;1588652;30;151895;-58
2021/08/20 02:19:01;;;;;;;;;;;;;;;21.95;68.66;101229.09;1588572;30;151823;-58
2021/08/20 02:20:33;;;;;;;;;;;;;;;21.94;68.22;101224.63;1590917;38;152098;-58
2021/08/20 02:22:05;;;;;;;;;;;;;;;21.96;68.49;101229.94;1589268;38;153682;-58
2021/08/20 02:23:38;;;;;;;;;;;;;;;21.95;68.35;101222.66;1589155;38;152933;-58
2021/08/20 02:25:10;;;;;;;;;;;;;;;21.96;68.83;101218.69;1588613;38;153555;-58
2021/08/20 02:26:42;;;;;;;;;;;;;;;21.96;68.33;101230.78;1589931;30;153678;-58
2021/08/20 02:28:14;;;;;;;;;;;;;;;21.97;68.53;101232.47;1589326;38;153544;-58
2021/08/20 02:29:46;;;;;;;;;;;;;;;21.98;68.35;101236.09;1589188;38;152521;-58
2021/08/20 02:31:18;;;;;;;;;;;;;;;21.98;68.58;101230.47;1588309;38;152807;-58
2021/08/20 02:32:50;;;;;;;;;;;;;;;21.98;68.23;101236.09;1590295;38;153534;-58
2021/08/20 02:34:25;;;;;;;;;;;;;;;21.97;68.52;101231.63;1586606;38;153437;-58
2021/08/20 02:35:57;;;;;;;;;;;;;;;21.99;68.04;101238.59;1586956;38;152824;-58
2021/08/20 02:37:29;;;;;;;;;;;;;;;22.00;68.05;101237.44;1585902;38;152837;-58
2021/08/20 02:39:02;;;;;;;;;;;;;;;22.00;68.10;101231.81;1590684;38;153690;-58
2021/08/20 02:40:34;;;;;;;;;;;;;;;22.01;68.04;101229.84;1588301;38;153672;-58
2021/08/20 02:42:06;;;;;;;;;;;;;;;22.01;67.84;101235.47;1592382;38;154559;-58
2021/08/20 02:43:38;;;;;;;;;;;;;;;22.02;68.33;101228.72;1588341;38;153968;-58
2021/08/20 02:45:16;;;;;;;;;;;;;;;22.03;67.85;101221.94;1587868;38;153444;-58
2021/08/20 02:46:48;;;;;;;;;;;;;;;22.01;68.12;101227.03;1589463;38;154518;-58
2021/08/20 02:48:20;;;;;;;;;;;;;;;22.03;67.94;101236.81;1586324;38;154193;-58
2021/08/20 02:49:52;;;;;;;;;;;;;;;22.04;68.24;101232.03;1589450;30;153792;-58
2021/08/20 02:51:24;;;;;;;;;;;;;;;22.02;67.85;101235.19;1588552;30;154415;-58
2021/08/20 02:52:56;;;;;;;;;;;;;;;22.03;68.10;101234.00;1587672;38;153458;-58
2021/08/20 02:54:28;;;;;;;;;;;;;;;22.05;68.05;101233.72;1585894;38;153665;-58
2021/08/20 02:56:00;;;;;;;;;;;;;;;22.05;68.01;101239.34;1585883;38;153644;-58
2021/08/20 02:57:32;;;;;;;;;;;;;;;22.04;68.23;101235.69;1589336;38;153537;-59
2021/08/20 02:59:04;;;;;;;;;;;;;;;22.04;67.82;101223.59;1588889;30;155065;-58
2021/08/20 03:00:36;;;;;;;;;;;;;;;22.05;68.07;101234.53;1589448;38;154417;-58
2021/08/20 03:02:09;;;;;;;;;;;;;;;22.05;68.32;101225.25;1588775;38;154154;-58
2021/08/20 03:03:41;;;;;;;;;;;;;;;22.05;68.27;101234.53;1590575;38;154059;-58
2021/08/20 03:05:13;;;;;;;;;;;;;;;22.08;68.28;101230.25;1589426;30;152097;-58
2021/08/20 03:06:45;;;;;;;;;;;;;;;22.07;68.13;101226.63;1589226;38;152311;-58
2021/08/20 03:08:17;;;;;;;;;;;;;;;22.07;68.21;101234.25;1589860;38;152220;-58
2021/08/20 03:09:48;;;;;;;;;;;;;;;22.06;68.23;101238.19;1587447;30;152037;-58
2021/08/20 03:11:20;;;;;;;;;;;;;;;22.07;68.19;101226.63;1588618;30;152144;-58
2021/08/20 03:12:52;;;;;;;;;;;;;;;22.08;67.88;101235.88;1588869;30;152265;-58
2021/08/20 03:14:25;;;;;;;;;;;;;;;22.06;68.14;101239.03;1589517;38;151825;-58
2021/08/20 03:15:57;;;;;;;;;;;;;;;22.06;68.19;101233.41;1590362;38;152220;-58
2021/08/20 03:17:29;;;;;;;;;;;;;;;22.08;68.11;101230.25;1589326;38;151927;-58
2021/08/20 03:19:01;;;;;;;;;;;;;;;22.06;68.12;101232.56;1588535;38;151797;-58
2021/08/20 03:20:33;;;;;;;;;;;;;;;22.09;68.16;101231.94;1587914;38;151980;-58
2021/08/20 03:22:05;;;;;;;;;;;;;;;22.09;67.66;101229.13;1587493;38;151941;-58
2021/08/20 03:23:37;;;;;;;;;;;;;;;22.07;67.86;101237.06;1588414;30;152609;-58
2021/08/20 03:25:09;;;;;;;;;;;;;;;22.08;68.10;101230.25;1589258;30;152093;-58
2021/08/20 03:26:41;;;;;;;;;;;;;;;22.09;68.04;101229.13;1590792;38;152050;-58
2021/08/20 03:28:13;;;;;;;;;;;;;;;22.06;67.58;101222.16;1586769;38;152734;-58
2021/08/20 03:29:45;;;;;;;;;;;;;;;22.05;67.76;101220.47;1588857;38;153462;-58
2021/08/20 03:31:18;;;;;;;;;;;;;;;22.08;67.84;101224.63;1588247;38;153983;-58
2021/08/20 03:32:50;;;;;;;;;;;;;;;22.07;68.03;101237.06;1588712;38;153880;-58
2021/08/20 03:34:22;;;;;;;;;;;;;;;22.05;68.09;101223.28;1588821;38;153713;-58
2021/08/20 03:35:54;;;;;;;;;;;;;;;22.05;67.69;101226.09;1588608;38;153597;-59
2021/08/20 03:37:26;;;;;;;;;;;;;;;22.05;67.69;101226.09;1588982;38;152654;-59
2021/08/20 03:38:59;;;;;;;;;;;;;;;22.04;67.63;101218.78;1587961;38;152817;-58
2021/08/20 03:40:31;;;;;;;;;;;;;;;22.07;67.71;101217.34;1587851;38;153680;-58
2021/08/20 03:42:03;;;;;;;;;;;;;;;22.07;67.91;101222.97;1589118;38;153447;-58
2021/08/20 03:43:35;;;;;;;;;;;;;;;22.05;67.85;101220.47;1588620;38;153633;-58
2021/08/20 03:45:07;;;;;;;;;;;;;;;22.08;67.97;101225.47;1589947;30;152805;-58
2021/08/20 03:46:39;;;;;;;;;;;;;;;22.07;67.75;101226.63;1587263;38;153634;-58
2021/08/20 03:48:11;;;;;;;;;;;;;;;22.07;67.88;101220.16;1589613;38;153301;-58
2021/08/20 03:49:43;;;;;;;;;;;;;;;22.07;67.95;101212.56;1588626;38;153593;-58
2021/08/20 03:51:15;;;;;;;;;;;;;;;22.07;68.03;101217.34;1585566;38;154250;-58
2021/08/20 03:52:47;;;;;;;;;;;;;;;22.07;67.72;101220.16;1586726;38;153422;-58
2021/08/20 03:54:20;;;;;;;;;;;;;;;22.08;68.02;101221.81;1586566;38;153506;-58
2021/08/20 03:55:52;;;;;;;;;;;;;;;22.07;67.55;101217.34;1587916;38;154088;-58
2021/08/20 03:57:24;;;;;;;;;;;;;;;22.07;67.75;101215.38;1588262;38;153588;-58
2021/08/20 03:58:58;;;;;;;;;;;;;;;22.07;67.78;101217.34;1588915;38;153873;-58
2021/08/20 04:00:30;;;;;;;;;;;;;;;22.07;67.57;101217.34;1589450;38;153860;-58
2021/08/20 04:02:03;;;;;;;;;;;;;;;22.04;67.76;101217.97;1587013;38;153516;-58
2021/08/20 04:03:37;;;;;;;;;;;;;;;22.06;67.97;101208.06;1588809;38;153971;-58
2021/08/20 04:05:09;;;;;;;;;;;;;;;22.05;67.97;101220.47;1587858;38;154116;-58
2021/08/20 04:06:41;;;;;;;;;;;;;;;22.06;67.77;101218.50;1588186;38;153482;-58
2021/08/20 04:08:14;;;;;;;;;;;;;;;22.05;67.85;101220.47;1588835;30;153479;-58
2021/08/20 04:09:46;;;;;;;;;;;;;;;22.07;67.75;101222.97;1590135;38;153735;-58
2021/08/20 04:11:18;;;;;;;;;;;;;;;22.07;67.48;101222.97;1588461;38;152302;-57
2021/08/20 04:12:50;;;;;;;;;;;;;;;22.05;67.30;101231.72;1588261;38;153047;-58
2021/08/20 04:14:23;;;;;;;;;;;;;;;22.07;67.76;101228.63;1588713;38;152317;-58
2021/08/20 04:15:55;;;;;;;;;;;;;;;22.07;67.88;101221.00;1587274;30;153357;-58
2021/08/20 04:17:27;;;;;;;;;;;;;;;22.10;67.45;101230.78;1588815;38;152286;-58
2021/08/20 04:18:59;;;;;;;;;;;;;;;22.07;67.26;101226.63;1586627;38;152241;-58
2021/08/20 04:20:31;;;;;;;;;;;;;;;22.07;67.71;101239.88;1589054;38;152141;-58
2021/08/20 04:22:03;;;;;;;;;;;;;;;22.07;67.78;101228.63;1586968;30;152016;-58
2021/08/20 04:23:35;;;;;;;;;;;;;;;22.07;67.41;101229.44;1587104;30;151830;-58
2021/08/20 04:25:07;;;;;;;;;;;;;;;22.06;67.77;101235.38;1586562;30;151911;-58
2021/08/20 04:26:39;;;;;;;;;;;;;;;22.05;67.62;101237.34;1589697;38;151987;-58
2021/08/20 04:28:11;;;;;;;;;;;;;;;22.06;67.70;101235.38;1588913;38;152075;-58
2021/08/20 04:29:43;;;;;;;;;;;;;;;22.06;67.45;101238.19;1590112;30;151841;-58
2021/08/20 04:31:15;;;;;;;;;;;;;;;22.04;67.41;101237.66;1591236;38;152248;-58
2021/08/20 04:32:47;;;;;;;;;;;;;;;22.06;67.83;101236.22;1588259;38;153061;-58
2021/08/20 04:34:20;;;;;;;;;;;;;;;22.05;67.65;101239.34;1588699;38;153504;-58
2021/08/20 04:35:52;;;;;;;;;;;;;;;22.08;67.74;101244.31;1589358;38;152849;-58
2021/08/20 04:37:24;;;;;;;;;;;;;;;22.05;67.63;101242.16;1589798;30;152901;-58
2021/08/20 04:38:55;;;;;;;;;;;;;;;22.05;67.55;101244.97;1585975;38;152831;-58
2021/08/20 04:40:27;;;;;;;;;;;;;;;22.04;67.74;101246.09;1588252;38;152883;-58
2021/08/20 04:41:59;;;;;;;;;;;;;;;22.05;67.48;101247.78;1588780;38;152848;-58
2021/08/20 04:43:31;;;;;;;;;;;;;;;22.05;67.36;101250.59;1587310;38;153646;-58
2021/08/20 04:45:04;;;;;;;;;;;;;;;22.04;67.63;101255.38;1588676;38;153456;-58
2021/08/20 04:46:37;;;;;;;;;;;;;;;22.04;67.54;101248.91;1589776;38;152796;-58
2021/08/20 04:48:09;;;;;;;;;;;;;;;22.02;67.54;101254.88;1589980;30;152828;-58
2021/08/20 04:49:41;;;;;;;;;;;;;;;22.04;67.20;101260.16;1586844;38;153279;-58
2021/08/20 04:51:13;;;;;;;;;;;;;;;22.03;67.33;101258.53;1588186;38;153587;-58
2021/08/20 04:52:45;;;;;;;;;;;;;;;22.04;67.52;101260.16;1590543;38;152797;-58
2021/08/20 04:54:17;;;;;;;;;;;;;;;22.03;67.06;101262.16;1588420;38;154409;-58
2021/08/20 04:55:49;;;;;;;;;;;;;;;22.03;67.19;101266.97;1589212;30;152677;-58
2021/08/20 04:57:21;;;;;;;;;;;;;;;22.03;67.48;101272.59;1588802;38;153471;-58
2021/08/20 04:58:53;;;;;;;;;;;;;;;22.01;67.35;101272.91;1587116;30;153455;-58
2021/08/20 05:00:25;;;;;;;;;;;;;;;22.04;67.21;101272.25;1589372;38;154063;-58
2021/08/20 05:01:57;;;;;;;;;;;;;;;22.02;67.08;101270.91;1588875;38;154150;-57
2021/08/20 05:03:30;;;;;;;;;;;;;;;22.02;67.00;101276.53;1588615;38;154139;-58
2021/08/20 05:05:06;;;;;;;;;;;;;;;22.02;67.17;101277.38;1588042;38;153781;-58
2021/08/20 05:06:38;;;;;;;;;;;;;;;22.02;67.18;101280.19;1587455;30;153423;-58
2021/08/20 05:08:10;;;;;;;;;;;;;;;22.02;67.18;101277.38;1588494;38;152691;-58
2021/08/20 05:09:42;;;;;;;;;;;;;;;22.02;67.41;101283.00;1588423;30;154245;-58
2021/08/20 05:11:14;;;;;;;;;;;;;;;22.02;67.18;101283.00;1586796;38;153986;-58
2021/08/20 05:12:46;;;;;;;;;;;;;;;22.02;67.49;101285.81;1587751;38;154568;-57
2021/08/20 05:14:18;;;;;;;;;;;;;;;22.03;67.64;101295.09;1587491;38;154670;-58
2021/08/20 05:15:50;;;;;;;;;;;;;;;22.02;67.18;101282.16;1588338;30;153916;-57
2021/08/20 05:17:22;;;;;;;;;;;;;;;22.01;67.27;101291.75;1588602;30;151755;-58
2021/08/20 05:18:55;;;;;;;;;;;;;;;22.02;67.25;101280.19;1589378;38;152589;-58
2021/08/20 05:20:27;;;;;;;;;;;;;;;22.02;67.11;101279.34;1588077;30;152256;-58
2021/08/20 05:21:59;;;;;;;;;;;;;;;22.01;67.34;101289.78;1588839;38;151962;-58
2021/08/20 05:23:31;;;;;;;;;;;;;;;22.03;67.01;101281.03;1586236;30;152189;-58
2021/08/20 05:25:03;;;;;;;;;;;;;;;22.00;67.06;101282.47;1588312;38;152012;-58
2021/08/20 05:26:35;;;;;;;;;;;;;;;22.01;67.43;101283.31;1588016;38;151888;-58
2021/08/20 05:28:09;;;;;;;;;;;;;;;22.01;67.21;101292.59;1589024;38;151919;-58
2021/08/20 05:29:50;;;;;;;;;;;;;;;21.99;66.96;101289.25;1587498;38;152243;-58
2021/08/20 05:31:22;;;;;;;;;;;;;;;21.99;67.35;101288.41;1588709;38;151774;-58
2021/08/20 05:32:54;;;;;;;;;;;;;;;22.00;67.17;101288.09;1588800;38;152169;-57
2021/08/20 05:34:26;;;;;;;;;;;;;;;21.99;67.30;101289.25;1587537;38;152420;-57
2021/08/20 05:35:58;;;;;;;;;;;;;;;22.02;67.57;101291.44;1588742;38;151929;-58
2021/08/20 05:37:30;;;;;;;;;;;;;;;21.99;67.42;101294.88;1588888;38;151955;-58
2021/08/20 05:39:02;;;;;;;;;;;;;;;22.00;67.31;101290.91;1589356;30;153528;-58
2021/08/20 05:40:34;;;;;;;;;;;;;;;22.00;67.02;101296.53;1588581;38;152475;-58
2021/08/20 05:42:06;;;;;;;;;;;;;;;21.99;67.13;101296.84;1587338;38;153142;-58
2021/08/20 05:43:37;;;;;;;;;;;;;;;22.01;67.51;101303.00;1588519;30;152841;-58
2021/08/20 05:45:10;;;;;;;;;;;;;;;21.99;67.10;101294.88;1586768;38;153353;-57
2021/08/20 05:46:41;;;;;;;;;;;;;;;22.00;67.52;101304.97;1588120;30;153490;-58
2021/08/20 05:48:13;;;;;;;;;;;;;;;22.00;67.21;101302.16;1587316;38;153723;-58
2021/08/20 05:49:45;;;;;;;;;;;;;;;22.00;67.05;101296.53;1588943;38;153627;-58
2021/08/20 05:51:17;;;;;;;;;;;;;;;22.01;67.56;101303.00;1588430;38;152181;-58
2021/08/20 05:52:49;;;;;;;;;;;;;;;22.04;67.25;101299.56;1587745;38;152684;-58
2021/08/20 05:54:22;;;;;;;;;;;;;;;22.03;67.37;101306.34;1589092;30;153373;-58
2021/08/20 05:55:54;;;;;;;;;;;;;;;22.02;66.80;101299.06;1588874;38;153271;-58
2021/08/20 05:57:26;;;;;;;;;;;;;;;22.01;67.35;101306.66;1588418;38;153046;-57
2021/08/20 05:58:58;;;;;;;;;;;;;;;21.99;66.91;101297.69;1591770;38;153599;-57
2021/08/20 06:00:30;;;;;;;;;;;;;;;21.98;67.21;101296.03;1588814;30;153431;-58
2021/08/20 06:02:02;;;;;;;;;;;;;;;21.97;67.19;101297.16;1588393;38;154187;-58
2021/08/20 06:03:34;;;;;;;;;;;;;;;22.00;67.42;101302.16;1589457;38;154327;-58
2021/08/20 06:05:07;;;;;;;;;;;;;;;22.00;67.53;101298.50;1588938;30;154226;-58
2021/08/20 06:06:39;;;;;;;;;;;;;;;21.99;67.02;101300.50;1587259;38;154432;-58
2021/08/20 06:08:11;;;;;;;;;;;;;;;21.99;67.13;101299.66;1588179;38;153551;-58
2021/08/20 06:09:43;;;;;;;;;;;;;;;22.00;67.44;101310.59;1586128;38;153384;-58
2021/08/20 06:11:15;;;;;;;;;;;;;;;22.03;67.50;101306.34;1587888;38;154099;-58
2021/08/20 06:12:47;;;;;;;;;;;;;;;22.00;67.41;101301.31;1587319;38;153514;-58
2021/08/20 06:14:20;;;;;;;;;;;;;;;21.97;67.37;101305.63;1586793;30;154022;-58
2021/08/20 06:15:52;;;;;;;;;;;;;;;22.00;67.42;101312.59;1587924;38;153524;-58
2021/08/20 06:17:24;;;;;;;;;;;;;;;21.99;67.37;101305.28;1585385;38;154976;-58
2021/08/20 06:18:56;;;;;;;;;;;;;;;21.98;66.90;101315.72;1587116;38;152872;-58
2021/08/20 06:20:28;;;;;;;;;;;;;;;22.00;67.10;101312.59;1588063;38;153670;-58
2021/08/20 06:22:00;;;;;;;;;;;;;;;21.99;67.41;101319.34;1586867;38;152629;-58
2021/08/20 06:23:32;;;;;;;;;;;;;;;22.00;66.82;101323.84;1587270;38;152352;-57
2021/08/20 06:25:05;;;;;;;;;;;;;;;22.00;66.87;101318.22;1588793;38;152048;-58
2021/08/20 06:26:37;;;;;;;;;;;;;;;21.99;66.88;101317.38;1586629;31;151964;-58
2021/08/20 06:28:09;;;;;;;;;;;;;;;21.99;67.05;101320.19;1587550;38;153507;-58
2021/08/20 06:29:41;;;;;;;;;;;;;;;21.98;67.27;101312.91;1587867;38;152463;-58
2021/08/20 06:31:13;;;;;;;;;;;;;;;21.97;67.07;101316.88;1586676;38;152057;-58
2021/08/20 06:32:45;;;;;;;;;;;;;;;21.99;67.09;101317.38;1588963;38;151984;-58
2021/08/20 06:34:20;;;;;;;;;;;;;;;22.00;67.06;101321.03;1585297;38;151950;-58
2021/08/20 06:35:52;;;;;;;;;;;;;;;21.97;66.92;101324.47;1587940;38;152679;-58
2021/08/20 06:37:24;;;;;;;;;;;;;;;21.98;67.01;101326.16;1589115;38;152561;-58
2021/08/20 06:38:56;;;;;;;;;;;;;;;21.98;67.24;101326.16;1588938;38;151675;-58
2021/08/20 06:40:28;;;;;;;;;;;;;;;21.97;67.39;101319.69;1589119;30;151908;-58
2021/08/20 06:42:00;;;;;;;;;;;;;;;21.96;67.06;101322.78;1589921;30;152072;-58
2021/08/20 06:43:32;;;;;;;;;;;;;;;21.95;67.27;101319.13;1589406;38;153083;-58
2021/08/20 06:45:04;;;;;;;;;;;;;;;21.95;67.03;101323.94;1585655;38;153911;-58
2021/08/20 06:46:36;;;;;;;;;;;;;;;21.96;67.04;101326.44;1587776;38;153137;-58
2021/08/20 06:48:08;;;;;;;;;;;;;;;21.95;67.45;101321.13;1588078;38;152916;-58
2021/08/20 06:49:40;;;;;;;;;;;;;;;22.00;67.24;101323.84;1588076;38;152994;-58
2021/08/20 06:51:13;;;;;;;;;;;;;;;21.99;67.18;101325.81;1587770;38;153513;-58
2021/08/20 06:52:45;;;;;;;;;;;;;;;22.00;66.98;101323.84;1588113;38;153819;-58
2021/08/20 06:54:17;;;;;;;;;;;;;;;22.00;67.09;101321.03;1587295;38;152812;-58
2021/08/20 06:55:50;;;;;;;;;;;;;;;21.99;66.89;101324.97;1586454;38;153677;-58
2021/08/20 06:57:22;;;;;;;;;;;;;;;21.99;66.86;101323.00;1586240;30;153529;-59
2021/08/20 06:58:57;;;;;;;;;;;;;;;21.99;67.28;101327.78;1588026;30;153019;-58
2021/08/20 07:00:30;;;;;;;;;;;;;;;22.00;66.92;101323.84;1585982;38;153258;-58
2021/08/20 07:02:02;;;;;;;;;;;;;;;22.00;67.29;101327.50;1587352;38;155076;-58
2021/08/20 07:03:35;;;;;;;;;;;;;;;21.99;67.27;101322.16;1587113;38;153428;-58
2021/08/20 07:05:08;;;;;;;;;;;;;;;22.00;66.97;101332.28;1590812;38;153275;-58
2021/08/20 07:06:40;;;;;;;;;;;;;;;22.00;67.28;101329.47;1588190;38;154376;-58
2021/08/20 07:08:11;;;;;;;;;;;;;;;22.01;67.16;101336.78;1587968;38;153987;-58
2021/08/20 07:09:43;;;;;;;;;;;;;;;21.99;67.19;101337.06;1588785;38;154222;-58
2021/08/20 07:11:16;;;;;;;;;;;;;;;21.98;67.12;101332.63;1586135;38;153707;-58
2021/08/20 07:12:48;;;;;;;;;;;;;;;21.99;67.63;101334.25;1586472;38;153745;-58
2021/08/20 07:14:21;;;;;;;;;;;;;;;22.01;67.08;101331.16;1587460;38;154112;-58
2021/08/20 07:15:53;;;;;;;;;;;;;;;22.02;67.48;101339.28;1588431;30;153822;-58
2021/08/20 07:17:25;;;;;;;;;;;;;;;22.03;67.46;101338.13;1588708;38;154325;-58
2021/08/20 07:18:57;;;;;;;;;;;;;;;22.02;67.18;101335.63;1585601;38;154134;-58
2021/08/20 07:20:29;;;;;;;;;;;;;;;22.01;67.03;101345.22;1586509;38;153890;-58
2021/08/20 07:22:01;;;;;;;;;;;;;;;22.03;66.90;101345.75;1586786;38;153406;-58
2021/08/20 07:23:33;;;;;;;;;;;;;;;22.03;66.90;101340.13;1586478;30;154028;-58
2021/08/20 07:25:06;;;;;;;;;;;;;;;22.01;66.75;101348.03;1588604;38;154121;-58
2021/08/20 07:26:37;;;;;;;;;;;;;;;22.01;67.19;101345.22;1589300;38;153438;-58
2021/08/20 07:28:09;;;;;;;;;;;;;;;22.02;67.07;101341.25;1587391;38;151954;-58
2021/08/20 07:29:42;;;;;;;;;;;;;;;22.01;67.18;101345.22;1587743;38;152216;-58
2021/08/20 07:31:14;;;;;;;;;;;;;;;22.02;67.16;101349.72;1588808;38;152189;-58
2021/08/20 07:32:46;;;;;;;;;;;;;;;22.03;67.32;101354.19;1588823;38;151859;-57
2021/08/20 07:34:18;;;;;;;;;;;;;;;22.03;66.86;101352.19;1587043;30;151857;-58
2021/08/20 07:35:50;;;;;;;;;;;;;;;22.06;67.35;101345.13;1586949;38;151974;-57
2021/08/20 07:37:22;;;;;;;;;;;;;;;22.05;66.86;101346.25;1587528;38;152823;-58
2021/08/20 07:38:55;;;;;;;;;;;;;;;22.05;67.05;101351.91;1589156;38;152003;-58
2021/08/20 07:40:27;;;;;;;;;;;;;;;22.05;66.74;101360.34;1588551;38;152109;-58
2021/08/20 07:41:59;;;;;;;;;;;;;;;22.05;66.98;101352.72;1588927;38;152157;-58
2021/08/20 07:43:31;;;;;;;;;;;;;;;22.04;66.85;101350.22;1586897;38;152033;-58
2021/08/20 07:45:04;;;;;;;;;;;;;;;22.02;66.73;101355.34;1587312;38;152215;-58
2021/08/20 07:46:35;;;;;;;;;;;;;;;22.00;67.08;101361.25;1587008;38;152087;-57
2021/08/20 07:48:09;;;;;;;;;;;;;;;21.99;67.26;101362.41;1590398;38;152410;-57